Time;durP1;ratioP1;P1;durP2;ratioP2;P2;SDS_P1;SDS_P2;PMS_P1;PMS_P2;Temp;Humidity;BMP_temperature;BMP_pressure;BME280_temperature;BME280_humidity;BME280_pressure;Samples;Min_cycle;Max_cycle;Signal;HPM_P1;HPM_P2
2022/02/09 00:02:29;;;;;;;1.30;1.00;;;7.40;98.00;;;;;;5091823;28;20510;-64
2022/02/09 00:05:15;;;;;;;1.20;0.97;;;7.40;98.00;;;;;;5091770;28;20489;-64
2022/02/09 00:07:50;;;;;;;1.20;0.90;;;7.50;98.00;;;;;;5091726;28;20539;-64
2022/02/09 00:10:17;;;;;;;1.20;0.90;;;7.50;98.00;;;;;;5091431;28;20575;-64
2022/02/09 00:12:49;;;;;;;1.20;1.00;;;7.60;98.00;;;;;;5091479;28;20515;-64
2022/02/09 00:15:28;;;;;;;1.20;1.00;;;7.60;98.00;;;;;;5091540;28;20451;-64
2022/02/09 00:18:04;;;;;;;1.20;1.00;;;7.60;98.00;;;;;;5091644;28;20509;-63
2022/02/09 00:21:00;;;;;;;1.20;1.03;;;7.60;98.00;;;;;;5091205;28;20527;-63
2022/02/09 00:26:42;;;;;;;1.20;1.00;;;7.60;98.00;;;;;;5089476;28;20449;-64
2022/02/09 00:32:25;;;;;;;1.20;0.97;;;7.70;98.00;;;;;;5091411;28;20485;-64
2022/02/09 00:35:17;;;;;;;1.67;1.10;;;7.60;98.00;;;;;;5091279;28;20452;-64
2022/02/09 00:38:19;;;;;;;1.37;1.17;;;7.60;98.00;;;;;;5091324;28;20478;-64
2022/02/09 01:38:54;;;;;;;1.30;1.00;;;7.40;98.00;;;;;;5093584;28;20549;-64
2022/02/09 01:55:30;;;;;;;1.37;1.03;;;7.40;98.00;;;;;;5094097;28;20444;-64
2022/02/09 01:57:57;;;;;;;1.23;1.17;;;7.40;98.00;;;;;;5094061;28;20452;-64
2022/02/09 02:00:27;;;;;;;1.20;1.00;;;7.40;98.00;;;;;;5093788;28;20494;-63
2022/02/09 02:02:54;;;;;;;1.20;0.93;;;7.40;98.00;;;;;;5093997;28;20466;-64
2022/02/09 02:05:22;;;;;;;1.60;1.30;;;7.40;98.00;;;;;;5093937;28;20522;-64
2022/02/09 02:07:51;;;;;;;1.20;1.00;;;7.40;98.00;;;;;;5093882;28;20490;-64
2022/02/09 02:10:25;;;;;;;1.30;1.10;;;7.50;98.00;;;;;;5093737;28;20450;-63
2022/02/09 02:13:08;;;;;;;1.20;1.00;;;7.70;98.00;;;;;;5093862;28;20516;-64
2022/02/09 02:18:19;;;;;;;1.20;1.00;;;7.80;98.00;;;;;;5091719;28;20475;-64
2022/02/09 02:20:58;;;;;;;1.50;1.23;;;7.60;98.00;;;;;;5093328;28;20451;-64
2022/02/09 02:23:43;;;;;;;1.30;1.00;;;7.50;98.00;;;;;;5093889;28;20451;-64
2022/02/09 02:26:23;;;;;;;1.20;0.97;;;7.50;98.00;;;;;;5093839;28;20455;-64
2022/02/09 02:29:12;;;;;;;1.77;1.67;;;7.50;98.00;;;;;;5093635;28;20448;-64
2022/02/09 02:35:09;;;;;;;1.20;1.00;;;7.40;98.00;;;;;;5030770;28;20462;-64
2022/02/09 02:40:44;;;;;;;1.20;0.90;;;7.30;98.00;;;;;;5061540;28;20454;-64
2022/02/09 02:59:44;;;;;;;1.20;1.10;;;7.20;98.00;;;;;;5092536;28;20859;-64
2022/02/09 03:13:20;;;;;;;1.40;1.20;;;7.10;98.00;;;;;;5092716;28;20883;-63
2022/02/09 03:15:54;;;;;;;1.20;1.00;;;7.10;98.00;;;;;;5092545;28;20445;-63
2022/02/09 03:21:20;;;;;;;1.33;1.20;;;7.10;98.00;;;;;;5092517;28;20946;-64
2022/02/09 03:23:52;;;;;;;1.40;1.13;;;7.10;98.00;;;;;;5092431;28;20463;-63
2022/02/09 03:43:27;;;;;;;2.83;1.57;;;7.10;98.00;;;;;;5129229;28;20537;-65
2022/02/09 03:46:20;;;;;;;1.20;1.10;;;7.20;98.00;;;;;;5129231;28;20461;-65
2022/02/09 03:49:00;;;;;;;1.20;1.00;;;7.20;98.00;;;;;;5129172;28;20480;-66
2022/02/09 03:54:25;;;;;;;1.20;1.00;;;7.20;98.00;;;;;;5122173;28;20446;-65
2022/02/09 03:56:59;;;;;;;2.20;1.27;;;7.20;98.00;;;;;;5129878;28;20458;-65
2022/02/09 03:59:28;;;;;;;1.20;0.90;;;7.30;98.00;;;;;;5129509;28;20452;-65
2022/02/09 04:01:57;;;;;;;1.20;1.10;;;7.10;98.00;;;;;;5129564;28;20482;-66
2022/02/09 04:04:25;;;;;;;1.20;0.90;;;7.10;98.00;;;;;;5128782;28;20873;-66
2022/02/09 04:06:52;;;;;;;1.20;1.00;;;7.10;98.00;;;;;;5128938;28;20442;-65
2022/02/09 04:09:25;;;;;;;1.13;0.90;;;7.20;98.00;;;;;;5128494;28;20576;-67
2022/02/09 04:11:59;;;;;;;1.20;1.10;;;7.20;98.00;;;;;;5111211;28;20537;-65
2022/02/09 04:14:34;;;;;;;1.20;0.90;;;7.30;98.00;;;;;;5128335;28;20523;-66
2022/02/09 04:17:09;;;;;;;1.40;1.23;;;7.30;98.00;;;;;;5128789;28;20550;-65
2022/02/09 04:19:45;;;;;;;1.20;1.10;;;7.30;98.00;;;;;;5128615;28;20474;-65
2022/02/09 04:36:25;;;;;;;2.90;1.33;;;7.10;98.00;;;;;;5128232;28;20442;-66
2022/02/09 04:38:58;;;;;;;1.20;0.97;;;7.10;98.00;;;;;;5106529;28;20472;-65
2022/02/09 04:47:25;;;;;;;1.20;1.00;;;7.10;98.00;;;;;;5076875;28;20492;-66
2022/02/09 04:50:07;;;;;;;1.20;1.00;;;7.10;98.00;;;;;;5114030;28;20462;-66
2022/02/09 04:52:57;;;;;;;1.20;1.10;;;7.00;98.00;;;;;;5114177;28;20460;-65
2022/02/09 04:55:44;;;;;;;1.20;1.00;;;7.00;98.00;;;;;;5114070;28;20479;-66
2022/02/09 04:58:19;;;;;;;1.20;1.00;;;6.90;98.00;;;;;;5114018;28;20969;-66
2022/02/09 05:00:54;;;;;;;1.20;1.10;;;6.90;98.00;;;;;;5113889;28;20455;-66
2022/02/09 05:22:58;;;;;;;1.20;1.00;;;7.00;98.00;;;;;;5113722;28;20438;-66
2022/02/09 05:28:13;;;;;;;1.20;1.00;;;7.00;98.00;;;;;;5097216;28;20836;-66
2022/02/09 05:30:40;;;;;;;1.20;1.00;;;7.00;98.00;;;;;;5113276;28;20969;-66
2022/02/09 05:33:07;;;;;;;1.30;1.10;;;6.90;98.00;;;;;;5113162;28;20460;-66
2022/02/09 05:35:34;;;;;;;1.20;1.00;;;6.90;98.00;;;;;;5113078;28;20508;-66
2022/02/09 05:38:03;;;;;;;1.93;1.70;;;6.90;98.00;;;;;;5113202;28;20482;-66
2022/02/09 05:40:36;;;;;;;1.20;1.00;;;6.90;98.00;;;;;;5113136;28;20824;-66
2022/02/09 05:43:03;;;;;;;3.00;1.30;;;6.90;98.00;;;;;;5113138;28;20494;-66
2022/02/09 05:45:40;;;;;;;1.20;1.10;;;6.90;98.00;;;;;;5112967;28;20459;-66
2022/02/09 05:51:19;;;;;;;3.40;1.87;;;6.90;98.00;;;;;;5111914;28;20920;-65
2022/02/09 05:54:02;;;;;;;1.20;1.03;;;7.00;98.00;;;;;;5112908;28;20475;-66
2022/02/09 05:56:36;;;;;;;1.20;1.00;;;7.00;98.00;;;;;;5112658;28;20520;-66
2022/02/09 05:59:15;;;;;;;1.20;1.00;;;6.90;98.00;;;;;;5112659;28;20455;-66
2022/02/09 06:01:43;;;;;;;1.20;1.00;;;7.00;98.00;;;;;;5112846;28;21111;-66
2022/02/09 06:04:10;;;;;;;1.20;0.90;;;7.10;98.00;;;;;;5112432;28;20550;-67
2022/02/09 06:06:37;;;;;;;1.20;1.00;;;7.30;98.00;;;;;;5094639;28;20504;-66
2022/02/09 06:09:07;;;;;;;1.20;1.10;;;7.30;98.00;;;;;;5112451;28;20571;-66
2022/02/09 06:11:42;;;;;;;1.20;0.90;;;7.20;98.00;;;;;;5112445;28;20960;-66
2022/02/09 06:14:22;;;;;;;1.13;0.97;;;7.20;98.00;;;;;;5112438;28;20451;-66
2022/02/09 06:19:44;;;;;;;2.23;1.27;;;7.20;98.00;;;;;;5112436;28;20963;-66
2022/02/09 06:22:11;;;;;;;1.60;1.10;;;7.20;98.00;;;;;;5095928;28;20660;-66
2022/02/09 06:24:41;;;;;;;1.20;1.10;;;7.20;98.00;;;;;;5112343;28;20960;-66
2022/02/09 06:27:09;;;;;;;1.20;0.90;;;7.10;98.00;;;;;;5111939;28;20462;-65
2022/02/09 06:29:36;;;;;;;1.60;1.10;;;7.10;98.00;;;;;;5112189;28;20479;-66
2022/02/09 06:32:08;;;;;;;1.20;1.00;;;7.20;98.00;;;;;;5112241;28;20960;-66
2022/02/09 06:34:36;;;;;;;1.20;1.00;;;7.10;98.00;;;;;;5112267;28;20454;-67
2022/02/09 06:37:12;;;;;;;1.20;1.10;;;7.00;98.00;;;;;;5112419;28;20495;-66
2022/02/09 06:39:45;;;;;;;1.20;1.03;;;7.00;98.00;;;;;;5095449;28;20458;-66
2022/02/09 06:42:12;;;;;;;1.60;1.47;;;7.00;98.00;;;;;;5111833;28;20504;-66
2022/02/09 06:44:40;;;;;;;1.53;1.13;;;7.00;98.00;;;;;;5112284;28;20461;-65
2022/02/09 06:47:07;;;;;;;2.80;1.67;;;7.10;98.00;;;;;;5111745;28;20457;-66
2022/02/09 06:49:36;;;;;;;1.40;1.20;;;7.00;98.00;;;;;;5111733;28;21068;-65
2022/02/09 06:52:04;;;;;;;2.13;1.47;;;7.00;98.00;;;;;;5111915;28;20531;-66
2022/02/09 06:54:34;;;;;;;1.30;1.20;;;7.00;98.00;;;;;;5111766;28;20460;-66
2022/02/09 06:57:09;;;;;;;1.30;1.10;;;7.10;98.00;;;;;;5111646;28;20449;-66
2022/02/09 06:59:41;;;;;;;1.20;1.10;;;7.00;98.00;;;;;;5111923;28;20450;-66
2022/02/09 07:02:10;;;;;;;1.40;1.40;;;7.00;98.00;;;;;;5111223;28;20454;-67
2022/02/09 07:04:38;;;;;;;1.23;1.20;;;7.10;98.00;;;;;;5111633;28;20455;-65
2022/02/09 07:07:06;;;;;;;1.40;1.20;;;7.00;98.00;;;;;;5111551;28;20500;-66
2022/02/09 07:09:34;;;;;;;1.73;1.70;;;7.10;98.00;;;;;;5111468;28;20482;-65
2022/02/09 07:12:03;;;;;;;1.20;1.20;;;7.30;98.00;;;;;;5111680;28;20862;-66
2022/02/09 07:14:31;;;;;;;1.93;1.50;;;7.30;98.00;;;;;;5110437;28;20483;-66
2022/02/09 07:16:58;;;;;;;1.57;1.20;;;7.20;98.00;;;;;;5111418;28;20511;-66
2022/02/09 07:19:27;;;;;;;1.37;1.10;;;7.20;98.00;;;;;;5111335;28;20447;-66
2022/02/09 07:21:57;;;;;;;1.20;1.00;;;7.20;98.00;;;;;;5111359;28;20515;-66
2022/02/09 07:24:26;;;;;;;1.20;1.00;;;7.40;98.00;;;;;;5111226;28;20554;-65
2022/02/09 07:27:23;;;;;;;2.33;1.30;;;7.60;98.00;;;;;;5111408;28;20458;-66
2022/02/09 07:29:51;;;;;;;1.20;1.00;;;7.60;98.00;;;;;;5110855;28;20479;-66
2022/02/09 07:32:19;;;;;;;1.43;1.37;;;7.50;98.00;;;;;;5111214;28;20490;-66
2022/02/09 07:34:46;;;;;;;1.20;0.97;;;7.40;98.00;;;;;;5111233;28;20491;-66
2022/02/09 07:37:12;;;;;;;1.67;1.57;;;7.40;98.00;;;;;;5111152;28;20506;-66
2022/02/09 07:39:39;;;;;;;1.90;1.83;;;7.40;98.00;;;;;;5111237;28;20517;-66
2022/02/09 07:42:12;;;;;;;1.20;1.10;;;7.40;98.00;;;;;;5111080;28;21057;-65
2022/02/09 07:44:54;;;;;;;1.20;1.10;;;7.20;98.00;;;;;;5111197;28;20544;-66
2022/02/09 07:47:38;;;;;;;1.30;1.10;;;7.20;98.00;;;;;;5095467;28;20540;-65
2022/02/09 07:50:31;;;;;;;1.20;1.00;;;7.20;98.00;;;;;;5111095;28;20487;-66
2022/02/09 07:53:10;;;;;;;1.30;1.10;;;7.20;98.00;;;;;;5111247;28;20829;-65
2022/02/09 07:55:38;;;;;;;1.80;1.63;;;7.20;98.00;;;;;;5111093;28;20835;-66
2022/02/09 07:58:05;;;;;;;1.20;0.90;;;7.30;98.00;;;;;;5111288;28;20941;-66
2022/02/09 08:00:33;;;;;;;1.50;1.30;;;7.10;98.00;;;;;;5111386;28;20451;-66
2022/02/09 08:03:04;;;;;;;1.40;1.13;;;7.00;98.00;;;;;;5111339;28;20454;-65
2022/02/09 08:05:31;;;;;;;1.20;1.10;;;7.00;98.00;;;;;;5129182;28;21066;-66
2022/02/09 08:07:58;;;;;;;1.40;1.20;;;7.00;98.00;;;;;;5129242;28;20520;-66
2022/02/09 08:10:29;;;;;;;1.20;1.17;;;7.00;98.00;;;;;;5128693;28;20481;-66
2022/02/09 08:24:26;;;;;;;2.70;1.83;;;8.50;98.00;;;;;;5132906;27;20526;-66
2022/02/09 08:27:06;;;;;;;1.20;1.10;;;8.50;98.00;;;;;;5132657;27;20452;-66
2022/02/09 08:29:44;;;;;;;1.53;1.43;;;8.40;98.00;;;;;;5132515;27;20487;-65
2022/02/09 08:34:44;;;;;;;1.20;1.10;;;8.20;98.00;;;;;;5132565;27;20765;-64
2022/02/09 08:37:12;;;;;;;1.20;1.00;;;8.10;98.00;;;;;;5132265;27;20508;-65
2022/02/09 08:39:38;;;;;;;1.20;1.10;;;8.00;98.00;;;;;;5113854;27;20515;-63
2022/02/09 08:42:06;;;;;;;1.20;1.00;;;8.00;98.00;;;;;;5132382;27;20483;-65
2022/02/09 08:44:34;;;;;;;1.20;1.10;;;8.00;98.00;;;;;;5132256;27;20462;-65
2022/02/09 08:47:01;;;;;;;1.20;1.00;;;8.00;98.00;;;;;;5132387;27;20448;-65
2022/02/09 08:49:29;;;;;;;1.20;1.10;;;8.00;98.00;;;;;;5132527;27;20570;-65
2022/02/09 08:51:59;;;;;;;1.77;1.20;;;8.00;98.00;;;;;;5109189;27;20457;-66
2022/02/09 08:54:26;;;;;;;1.57;1.57;;;8.60;98.00;;;;;;5132020;27;20521;-66
2022/02/09 08:56:55;;;;;;;1.63;1.20;;;9.70;98.00;;;;;;5132217;27;20485;-64
2022/02/09 08:59:26;;;;;;;1.30;1.20;;;10.80;98.00;;;;;;5131544;27;20499;-65
2022/02/09 09:01:58;;;;;;;2.90;2.30;;;11.80;98.00;;;;;;5132004;27;20458;-66
2022/02/09 09:04:30;;;;;;;1.93;1.20;;;12.40;98.00;;;;;;5132141;27;20870;-65
2022/02/09 09:07:04;;;;;;;1.53;1.50;;;12.80;98.00;;;;;;5132432;27;20449;-66
2022/02/09 09:09:46;;;;;;;1.37;1.23;;;12.60;98.00;;;;;;5131941;27;20489;-66
2022/02/09 09:15:50;;;;;;;1.30;1.20;;;11.90;98.00;;;;;;5133077;27;20456;-66
2022/02/09 09:40:30;;;;;;;1.40;1.17;;;10.20;98.00;;;;;;5132125;27;20481;-65
2022/02/09 10:02:53;;;;;;;1.60;1.10;;;10.20;98.00;;;;;;5131245;27;20445;-65
2022/02/09 10:14:06;;;;;;;1.20;1.00;;;10.30;98.00;;;;;;5130716;27;20458;-65
2022/02/09 10:31:35;;;;;;;1.20;1.00;;;10.70;98.00;;;;;;5115283;27;20448;-66
2022/02/09 10:34:08;;;;;;;1.40;1.40;;;10.70;98.00;;;;;;5121317;27;20454;-65
2022/02/09 10:36:45;;;;;;;1.23;1.10;;;10.80;98.00;;;;;;5129627;27;20511;-64
2022/02/09 10:39:16;;;;;;;1.40;1.20;;;10.80;98.00;;;;;;5130112;27;20457;-65
2022/02/09 10:41:58;;;;;;;1.40;1.20;;;10.90;98.00;;;;;;5130084;27;20538;-65
2022/02/09 10:44:27;;;;;;;1.60;1.17;;;10.90;98.00;;;;;;5129980;27;20450;-64
2022/02/09 10:46:57;;;;;;;1.30;1.10;;;11.10;98.00;;;;;;5129779;27;20455;-65
2022/02/09 10:49:29;;;;;;;1.50;1.40;;;11.30;98.00;;;;;;5126868;27;21117;-65
2022/02/09 10:52:15;;;;;;;1.40;1.37;;;11.40;98.00;;;;;;5130969;27;20454;-65
2022/02/09 10:54:42;;;;;;;1.63;1.37;;;11.40;98.00;;;;;;5115473;27;20497;-66
2022/02/09 10:57:11;;;;;;;1.60;1.10;;;11.40;98.00;;;;;;5130331;27;20450;-65
2022/02/09 10:59:40;;;;;;;1.30;1.20;;;11.50;98.00;;;;;;5130048;27;20513;-65
2022/02/09 11:02:12;;;;;;;1.40;1.20;;;11.60;98.00;;;;;;5130015;27;20450;-64
2022/02/09 11:04:42;;;;;;;1.40;1.10;;;11.70;98.00;;;;;;5129731;27;20450;-64
2022/02/09 11:07:09;;;;;;;2.07;1.20;;;11.80;98.00;;;;;;5129821;27;20961;-64
2022/02/09 11:09:37;;;;;;;1.20;1.00;;;12.00;98.00;;;;;;5129943;27;20524;-67
2022/02/09 11:12:05;;;;;;;1.60;1.10;;;12.10;98.00;;;;;;5130211;27;20922;-65
2022/02/09 11:14:32;;;;;;;1.73;1.67;;;12.20;98.00;;;;;;5111932;27;20458;-64
2022/02/09 11:17:04;;;;;;;1.80;1.00;;;12.40;98.00;;;;;;5130108;27;20490;-65
2022/02/09 11:19:36;;;;;;;1.20;1.00;;;12.50;98.00;;;;;;5130006;27;20538;-65
2022/02/09 11:22:09;;;;;;;1.70;1.27;;;12.60;98.00;;;;;;5129888;27;20464;-65
2022/02/09 11:24:42;;;;;;;1.20;1.00;;;12.80;98.00;;;;;;5129944;27;20462;-65
2022/02/09 11:27:15;;;;;;;1.20;1.00;;;12.90;98.00;;;;;;5129724;27;20862;-65
2022/02/09 11:29:54;;;;;;;1.43;1.33;;;13.10;98.00;;;;;;5111885;28;20493;-65
2022/02/09 11:32:34;;;;;;;2.03;1.63;;;13.30;98.00;;;;;;5130017;28;20545;-65
2022/02/09 11:35:27;;;;;;;1.30;1.20;;;13.50;98.00;;;;;;5129744;28;20852;-65
2022/02/09 11:38:17;;;;;;;1.50;1.23;;;13.80;98.00;;;;;;5114162;28;20927;-65
2022/02/09 11:40:54;;;;;;;1.20;1.10;;;13.90;98.00;;;;;;5130028;28;20507;-65
2022/02/09 11:43:40;;;;;;;1.20;1.00;;;14.10;98.00;;;;;;5129803;28;20856;-65
2022/02/09 11:46:27;;;;;;;1.30;1.30;;;14.30;97.80;;;;;;5129870;28;20538;-65
2022/02/09 11:52:35;;;;;;;1.30;1.20;;;15.10;94.90;;;;;;5129584;27;20445;-65
2022/02/09 11:55:45;;;;;;;1.50;1.20;;;15.60;92.50;;;;;;5118280;27;20856;-65
2022/02/09 12:01:21;;;;;;;1.20;1.03;;;15.80;92.70;;;;;;5133915;27;20454;-65
2022/02/09 12:10:23;;;;;;;1.20;1.07;;;16.90;88.80;;;;;;5072078;27;20477;-65
2022/02/09 12:13:01;;;;;;;1.20;1.10;;;17.20;88.70;;;;;;5124427;27;20454;-65
2022/02/09 12:15:53;;;;;;;1.20;1.10;;;17.40;88.20;;;;;;5133181;27;20938;-65
2022/02/09 12:18:29;;;;;;;2.33;1.50;;;17.60;87.50;;;;;;5133277;27;20806;-65
2022/02/09 12:20:59;;;;;;;1.20;1.00;;;17.60;87.20;;;;;;5133460;27;20457;-65
2022/02/09 12:23:33;;;;;;;1.20;1.00;;;17.50;87.20;;;;;;5132651;27;20500;-66
2022/02/09 12:26:01;;;;;;;1.20;1.10;;;17.70;88.60;;;;;;5117110;27;20863;-66
2022/02/09 12:28:36;;;;;;;1.20;1.10;;;17.50;87.40;;;;;;5133073;27;20456;-65
2022/02/09 12:31:05;;;;;;;1.93;1.60;;;17.50;86.40;;;;;;5132916;27;21658;-65
2022/02/09 12:33:33;;;;;;;1.50;1.20;;;17.90;87.00;;;;;;5133119;27;20556;-64
2022/02/09 12:36:13;;;;;;;1.20;1.10;;;18.20;86.60;;;;;;5133784;27;20463;-64
2022/02/09 12:38:41;;;;;;;1.20;1.03;;;18.40;85.20;;;;;;5135686;27;20452;-65
2022/02/09 12:41:13;;;;;;;1.20;1.10;;;18.40;86.00;;;;;;5135567;27;20975;-65
2022/02/09 12:43:54;;;;;;;1.97;1.40;;;18.80;85.20;;;;;;5117665;27;20494;-65
2022/02/09 12:46:23;;;;;;;1.20;1.07;;;19.10;84.40;;;;;;5135180;27;20486;-66
2022/02/09 12:48:52;;;;;;;1.50;1.17;;;19.00;83.60;;;;;;5135436;27;20469;-65
2022/02/09 12:51:24;;;;;;;1.20;1.10;;;19.40;84.00;;;;;;5135007;27;20520;-66
2022/02/09 12:53:51;;;;;;;1.47;1.20;;;19.60;81.20;;;;;;5135579;27;20489;-66
2022/02/09 12:56:21;;;;;;;1.20;1.10;;;19.90;81.10;;;;;;5135464;27;20503;-65
2022/02/09 12:58:58;;;;;;;1.20;1.00;;;19.90;81.10;;;;;;5135559;27;20963;-66
2022/02/09 13:01:25;;;;;;;1.40;1.30;;;20.00;80.60;;;;;;5134748;27;20480;-65
2022/02/09 13:03:56;;;;;;;1.50;1.20;;;20.10;80.10;;;;;;5135510;27;20513;-65
2022/02/09 13:06:23;;;;;;;1.20;1.10;;;20.20;79.50;;;;;;5116653;27;20490;-66
2022/02/09 13:08:54;;;;;;;1.20;1.10;;;20.20;79.10;;;;;;5117113;27;20467;-65
2022/02/09 13:11:27;;;;;;;1.40;1.20;;;20.20;80.80;;;;;;5134833;27;20477;-65
2022/02/09 13:14:04;;;;;;;1.50;1.20;;;20.40;79.20;;;;;;5135105;27;20577;-66
2022/02/09 13:16:46;;;;;;;1.20;1.10;;;20.30;78.50;;;;;;5134786;27;20454;-66
2022/02/09 13:19:39;;;;;;;1.30;1.20;;;20.20;79.00;;;;;;5118946;27;21006;-65
2022/02/09 13:54:56;;;;;;;1.30;1.10;;;19.40;80.50;;;;;;5134388;27;20584;-66
2022/02/09 14:11:36;;;;;;;1.20;1.10;;;16.70;87.30;;;;;;5133618;27;20842;-66
2022/02/09 14:14:51;;;;;;;1.20;1.00;;;16.40;88.10;;;;;;5133725;27;20471;-65
2022/02/09 14:17:11;;;;;;;1.20;1.10;;;16.50;88.30;;;;;;5133471;27;20473;-67
2022/02/09 14:52:58;;;;;;;2.93;2.00;;;20.50;78.50;;;;;;5133525;27;20438;-65
2022/02/09 14:55:33;;;;;;;1.60;1.20;;;21.10;77.90;;;;;;5133487;27;20454;-67
2022/02/09 14:58:07;;;;;;;1.20;1.10;;;21.00;76.40;;;;;;5133349;27;20460;-66
2022/02/09 15:00:37;;;;;;;1.60;1.30;;;21.20;76.50;;;;;;5132970;27;20450;-66
2022/02/09 15:03:18;;;;;;;1.20;1.10;;;21.60;76.80;;;;;;5133027;27;20450;-66
2022/02/09 15:08:43;;;;;;;1.77;1.50;;;22.30;75.60;;;;;;5116601;27;20446;-67
2022/02/09 15:11:17;;;;;;;1.30;1.30;;;22.40;74.50;;;;;;5132564;27;20489;-66
2022/02/09 15:13:57;;;;;;;1.47;1.17;;;22.60;73.60;;;;;;5132804;27;20454;-68
2022/02/09 15:16:29;;;;;;;1.53;1.40;;;22.30;74.10;;;;;;5132672;27;20532;-66
2022/02/09 15:19:25;;;;;;;1.30;1.20;;;22.50;74.10;;;;;;5132685;27;20450;-66
2022/02/09 15:24:41;;;;;;;1.50;1.20;;;23.20;72.60;;;;;;5132558;27;20440;-66
2022/02/09 15:27:16;;;;;;;1.50;1.30;;;23.70;73.10;;;;;;5132421;27;20445;-67
2022/02/09 15:29:43;;;;;;;1.20;1.10;;;24.10;72.50;;;;;;5132543;28;20454;-66
2022/02/09 15:32:23;;;;;;;1.20;1.20;;;24.40;70.30;;;;;;5132615;28;20450;-66
2022/02/09 15:34:54;;;;;;;1.30;1.30;;;24.10;70.50;;;;;;5132565;28;20450;-67
2022/02/09 15:37:29;;;;;;;1.73;1.33;;;23.90;71.00;;;;;;5132636;28;20445;-67
2022/02/09 15:39:59;;;;;;;1.20;1.10;;;23.50;71.30;;;;;;5132590;28;20919;-66
2022/02/09 15:42:53;;;;;;;1.30;1.20;;;23.30;72.40;;;;;;5132632;28;20461;-67
2022/02/09 15:56:29;;;;;;;2.00;1.50;;;21.10;76.00;;;;;;5132337;28;20970;-66
2022/02/09 16:10:40;;;;;;;1.20;1.10;;;16.30;88.20;;;;;;5050307;28;20568;-66
2022/02/09 16:24:14;;;;;;;1.20;1.10;;;13.70;96.00;;;;;;5132364;28;20895;-66
2022/02/09 16:38:03;;;;;;;1.30;1.10;;;12.50;98.00;;;;;;5135915;27;20470;-66
2022/02/09 16:46:12;;;;;;;2.07;1.40;;;11.70;98.00;;;;;;5135734;27;20496;-66
2022/02/09 16:48:46;;;;;;;1.30;1.20;;;11.60;98.00;;;;;;5135688;27;20448;-66
2022/02/09 16:51:16;;;;;;;1.40;1.20;;;11.50;98.00;;;;;;5135344;27;20479;-66
2022/02/09 16:54:04;;;;;;;1.20;1.10;;;11.30;98.00;;;;;;5135583;27;20445;-67
2022/02/09 16:56:56;;;;;;;1.63;1.10;;;11.10;98.00;;;;;;5135337;27;20533;-65
2022/02/09 17:21:29;;;;;;;1.20;1.00;;;10.20;98.00;;;;;;5118778;27;20455;-67
2022/02/09 17:24:01;;;;;;;1.20;1.00;;;10.10;98.00;;;;;;5134315;27;20451;-66
2022/02/09 17:26:29;;;;;;;1.63;1.37;;;10.00;98.00;;;;;;5133274;27;20854;-66
2022/02/09 17:29:00;;;;;;;1.20;1.00;;;9.90;98.00;;;;;;5135087;27;20817;-67
2022/02/09 17:31:35;;;;;;;1.20;1.10;;;10.00;98.00;;;;;;5134153;27;20563;-66
2022/02/09 17:37:06;;;;;;;1.20;1.10;;;9.90;98.00;;;;;;5134560;27;20440;-66
2022/02/09 17:53:24;;;;;;;1.20;1.00;;;9.10;98.00;;;;;;5096062;28;20441;-66
2022/02/09 17:56:02;;;;;;;1.20;1.00;;;9.10;98.00;;;;;;5093701;28;20459;-65
2022/02/09 17:58:33;;;;;;;2.80;1.57;;;9.00;98.00;;;;;;5085267;28;20463;-65
2022/02/09 18:01:02;;;;;;;1.53;1.30;;;9.00;98.00;;;;;;5097979;28;20493;-65
2022/02/09 18:03:29;;;;;;;1.20;1.00;;;9.00;98.00;;;;;;5108948;28;20804;-65
2022/02/09 18:06:08;;;;;;;1.20;1.00;;;9.00;98.00;;;;;;5092046;28;20505;-66
2022/02/09 18:08:44;;;;;;;2.23;1.40;;;8.90;98.00;;;;;;5100319;28;20453;-65
2022/02/09 18:11:22;;;;;;;1.30;1.20;;;8.70;98.00;;;;;;5103103;28;20492;-66
2022/02/09 18:14:18;;;;;;;1.67;1.60;;;8.70;98.00;;;;;;5108477;28;21111;-66
2022/02/09 18:30:55;;;;;;;3.87;1.63;;;8.20;98.00;;;;;;5087076;28;20900;-66
2022/02/09 18:44:29;;;;;;;1.20;1.00;;;7.80;98.00;;;;;;5092687;28;20446;-66
2022/02/09 18:47:29;;;;;;;1.20;1.00;;;7.70;98.00;;;;;;5092499;28;20459;-65
2022/02/09 19:03:57;;;;;;;1.20;1.00;;;7.30;98.00;;;;;;5092242;28;20454;-66
2022/02/09 19:06:37;;;;;;;1.20;1.10;;;7.20;98.00;;;;;;5092300;28;20442;-65
2022/02/09 19:14:46;;;;;;;1.20;1.03;;;7.10;98.00;;;;;;5092016;28;20490;-66
2022/02/09 19:17:23;;;;;;;1.93;1.20;;;7.00;98.00;;;;;;5091965;28;20969;-65
2022/02/09 19:20:09;;;;;;;1.20;1.00;;;6.80;98.00;;;;;;5092086;28;20820;-66
2022/02/09 19:31:05;;;;;;;1.50;1.10;;;6.90;98.00;;;;;;5043329;28;20499;-65
2022/02/09 19:40:32;;;;;;;1.30;1.10;;;6.80;98.00;;;;;;5074917;28;20546;-65
2022/02/09 19:47:43;;;;;;;2.17;2.03;;;6.40;98.00;;;;;;5078626;28;20448;-66
2022/02/09 19:50:29;;;;;;;1.40;1.30;;;6.30;98.00;;;;;;5091561;28;20540;-65
2022/02/09 19:53:11;;;;;;;2.80;1.67;;;6.40;98.00;;;;;;5091737;28;20457;-65
2022/02/09 19:55:39;;;;;;;1.30;1.30;;;6.30;98.00;;;;;;5091645;28;20818;-65
2022/02/09 19:58:09;;;;;;;1.67;1.67;;;6.40;98.00;;;;;;5091676;28;20996;-65
2022/02/09 20:00:42;;;;;;;3.73;2.53;;;6.20;98.00;;;;;;5091577;28;20506;-66
2022/02/09 20:03:11;;;;;;;1.30;1.10;;;6.00;98.00;;;;;;5091570;28;20513;-65
2022/02/09 20:05:38;;;;;;;2.50;2.00;;;6.00;98.00;;;;;;5073665;28;20868;-66
2022/02/09 20:08:06;;;;;;;3.30;2.30;;;5.90;98.00;;;;;;5091496;28;20535;-65
2022/02/09 20:10:34;;;;;;;2.20;1.80;;;6.00;98.00;;;;;;5092755;28;20456;-64
2022/02/09 20:13:02;;;;;;;1.93;1.47;;;5.80;98.00;;;;;;5095012;28;20536;-67
2022/02/09 20:15:29;;;;;;;3.63;1.30;;;5.80;98.00;;;;;;5094755;28;20490;-66
2022/02/09 20:17:58;;;;;;;3.53;1.43;;;5.80;98.00;;;;;;5094809;28;20454;-65
2022/02/09 20:20:28;;;;;;;14.03;3.30;;;5.70;98.00;;;;;;5094571;28;20491;-65
2022/02/09 20:22:58;;;;;;;1.57;1.40;;;5.50;98.00;;;;;;5094546;28;20458;-65
2022/02/09 20:25:27;;;;;;;1.20;1.00;;;5.50;98.00;;;;;;5094507;28;20960;-65
2022/02/09 20:27:57;;;;;;;1.30;1.10;;;5.50;98.00;;;;;;5094496;28;20471;-66
2022/02/09 20:30:30;;;;;;;1.20;1.10;;;5.50;98.00;;;;;;5094543;28;20456;-66
2022/02/09 20:33:02;;;;;;;1.40;1.40;;;5.60;98.00;;;;;;5094561;28;20510;-65
2022/02/09 20:35:30;;;;;;;2.33;1.73;;;5.50;98.00;;;;;;5093971;28;20497;-65
2022/02/09 20:37:57;;;;;;;1.80;1.10;;;5.40;98.00;;;;;;5094112;28;20597;-65
2022/02/09 20:40:33;;;;;;;1.50;1.40;;;5.30;98.00;;;;;;5094277;28;20489;-64
2022/02/09 20:43:03;;;;;;;1.87;1.30;;;5.30;98.00;;;;;;5094293;28;21012;-65
2022/02/09 20:45:34;;;;;;;3.20;2.03;;;5.20;98.00;;;;;;5094280;28;20468;-66
2022/02/09 20:48:05;;;;;;;1.60;1.23;;;5.20;98.00;;;;;;5094242;28;20480;-66
2022/02/09 20:50:34;;;;;;;1.30;1.10;;;5.20;98.00;;;;;;5094021;28;20939;-67
2022/02/09 20:53:02;;;;;;;1.83;1.80;;;5.30;98.00;;;;;;5093822;28;20538;-67
2022/02/09 20:55:30;;;;;;;1.93;1.83;;;5.10;98.00;;;;;;5094058;28;20952;-67
2022/02/09 20:57:57;;;;;;;2.17;1.60;;;5.30;98.00;;;;;;5094742;28;20450;-67
2022/02/09 21:00:34;;;;;;;1.50;1.30;;;5.10;98.00;;;;;;5094216;28;20465;-67
2022/02/09 21:03:15;;;;;;;1.60;1.43;;;5.10;98.00;;;;;;5094770;28;20453;-67
2022/02/09 21:05:53;;;;;;;1.60;1.40;;;5.10;98.00;;;;;;5094064;28;20453;-67
2022/02/09 21:08:32;;;;;;;5.17;2.53;;;5.10;98.00;;;;;;5093913;28;20466;-67
2022/02/09 21:11:09;;;;;;;1.83;1.73;;;5.10;98.00;;;;;;5093802;28;20455;-67
2022/02/09 21:13:47;;;;;;;1.53;1.20;;;5.10;98.00;;;;;;5093602;28;20822;-67
2022/02/09 21:16:27;;;;;;;1.20;1.10;;;5.00;98.00;;;;;;5093564;28;20451;-67
2022/02/09 21:19:21;;;;;;;1.53;1.43;;;4.80;98.00;;;;;;5093854;28;20462;-67
2022/02/09 21:28:03;;;;;;;1.87;1.70;;;4.70;98.00;;;;;;5093412;28;20461;-67
2022/02/09 21:33:28;;;;;;;3.20;2.30;;;4.60;98.00;;;;;;5094137;28;20959;-67
2022/02/09 21:55:42;;;;;;;1.80;1.60;;;4.50;98.00;;;;;;5073737;28;20851;-67
2022/02/09 21:58:20;;;;;;;1.30;1.30;;;4.40;98.00;;;;;;5073585;28;20482;-67
2022/02/09 22:01:12;;;;;;;1.20;1.17;;;4.30;98.00;;;;;;5073250;28;20890;-67
2022/02/09 22:06:32;;;;;;;1.30;1.13;;;4.10;98.00;;;;;;5073148;28;20448;-67
2022/02/09 22:23:04;;;;;;;1.30;1.20;;;3.90;98.00;;;;;;5056122;28;20736;-67
2022/02/09 22:28:21;;;;;;;1.40;1.33;;;3.80;98.00;;;;;;5071781;28;20808;-67
2022/02/09 22:47:55;;;;;;;1.50;1.30;;;3.70;98.00;;;;;;5051732;28;20938;-67
2022/02/09 22:50:44;;;;;;;2.03;1.63;;;3.80;98.00;;;;;;5071461;28;20450;-67
2022/02/09 22:55:53;;;;;;;1.20;1.20;;;3.60;98.00;;;;;;5037369;28;20451;-67
2022/02/09 22:58:20;;;;;;;1.40;1.37;;;3.50;98.00;;;;;;5053765;28;20811;-67
2022/02/09 23:00:57;;;;;;;4.27;2.40;;;3.50;98.00;;;;;;5071090;28;21024;-67
2022/02/09 23:03:29;;;;;;;2.17;1.67;;;3.50;98.00;;;;;;5071098;28;20510;-67
2022/02/09 23:56:24;;;;;;;1.30;1.30;;;3.10;98.00;;;;;;5074833;28;20923;-67
